createdAt,value
2023-08-14T00:01:22.925Z,16.13
2023-08-14T00:03:52.641Z,16.07
2023-08-14T00:06:20.786Z,16.08
2023-08-14T00:08:48.582Z,16.03
2023-08-14T00:11:16.426Z,16.00
2023-08-14T00:13:52.318Z,16.01
2023-08-14T00:16:22.235Z,16.07
2023-08-14T00:18:50.598Z,16.10
2023-08-14T00:21:18.553Z,16.08
2023-08-14T00:23:46.395Z,15.97
2023-08-14T00:26:14.237Z,15.97
2023-08-14T00:28:42.265Z,15.93
2023-08-14T00:31:10.195Z,15.87
2023-08-14T00:33:39.418Z,15.87
2023-08-14T00:36:07.954Z,15.91
2023-08-14T00:38:36.526Z,15.91
2023-08-14T00:41:04.811Z,15.85
2023-08-14T00:43:32.618Z,15.83
2023-08-14T00:46:02.243Z,15.79
2023-08-14T00:48:30.661Z,15.77
2023-08-14T00:51:00.612Z,15.82
2023-08-14T00:53:30.807Z,15.84
2023-08-14T00:56:01.408Z,15.81
2023-08-14T00:58:30.089Z,15.79
2023-08-14T01:00:59.650Z,15.77
2023-08-14T01:03:27.646Z,15.75
2023-08-14T01:05:55.977Z,15.73
2023-08-14T01:08:25.900Z,15.73
2023-08-14T01:11:01.827Z,15.67
2023-08-14T01:13:38.769Z,15.64
2023-08-14T01:16:09.878Z,15.63
2023-08-14T01:18:41.192Z,15.58
2023-08-14T01:21:18.665Z,15.55
2023-08-14T01:24:03.138Z,15.47
2023-08-14T01:26:33.563Z,15.43
2023-08-14T01:29:04.125Z,15.41
2023-08-14T01:31:32.427Z,15.41
2023-08-14T01:34:00.326Z,15.39
2023-08-14T01:36:35.403Z,15.37
2023-08-14T01:39:09.371Z,15.33
2023-08-14T01:41:45.401Z,15.30
2023-08-14T01:44:17.076Z,15.30
2023-08-14T01:46:47.901Z,15.24
2023-08-14T01:49:18.737Z,15.14
2023-08-14T01:51:48.372Z,15.19
2023-08-14T01:54:16.188Z,15.20
2023-08-14T01:56:45.632Z,15.20
2023-08-14T01:59:13.546Z,15.20
2023-08-14T02:01:41.391Z,15.21
2023-08-14T02:04:10.199Z,15.16
2023-08-14T02:06:38.068Z,15.15
2023-08-14T02:09:06.370Z,15.15
2023-08-14T02:11:34.169Z,15.13
2023-08-14T02:14:03.390Z,15.10
2023-08-14T02:16:31.154Z,15.02
2023-08-14T02:18:59.027Z,14.98
2023-08-14T02:21:26.900Z,14.94
2023-08-14T02:23:54.649Z,14.92
2023-08-14T02:26:22.523Z,14.89
2023-08-14T02:28:50.274Z,14.83
2023-08-14T02:31:19.874Z,14.80
2023-08-14T02:33:47.741Z,14.76
2023-08-14T02:36:15.517Z,14.73
2023-08-14T02:38:43.372Z,14.67
2023-08-14T02:41:12.850Z,14.66
2023-08-14T02:43:40.721Z,14.65
2023-08-14T02:46:09.915Z,14.62
2023-08-14T02:48:41.258Z,14.60
2023-08-14T02:51:09.276Z,14.57
2023-08-14T02:53:37.081Z,14.54
2023-08-14T02:56:05.197Z,14.51
2023-08-14T02:58:33.130Z,14.47
2023-08-14T03:01:01.425Z,14.43
2023-08-14T03:03:29.395Z,14.41
2023-08-14T03:06:00.901Z,14.38
2023-08-14T03:08:28.924Z,14.36
2023-08-14T03:10:56.747Z,14.31
2023-08-14T03:13:24.532Z,14.27
2023-08-14T03:15:52.379Z,14.26
2023-08-14T03:18:20.217Z,14.24
2023-08-14T03:20:48.105Z,14.23
2023-08-14T03:23:17.212Z,14.21
2023-08-14T03:25:45.400Z,14.16
2023-08-14T03:28:13.226Z,14.10
2023-08-14T03:30:43.779Z,14.10
2023-08-14T03:33:14.097Z,14.05
2023-08-14T03:35:41.963Z,14.07
2023-08-14T03:38:09.836Z,14.04
2023-08-14T03:40:39.066Z,14.02
2023-08-14T03:43:06.897Z,14.00
2023-08-14T03:45:34.731Z,13.98
2023-08-14T03:48:02.506Z,13.97
2023-08-14T03:50:30.346Z,13.92
2023-08-14T03:52:58.432Z,13.80
2023-08-14T03:55:26.284Z,13.76
2023-08-14T03:57:55.633Z,13.76
2023-08-14T04:00:23.514Z,13.76
2023-08-14T04:02:51.512Z,13.79
2023-08-14T04:05:19.496Z,13.80
2023-08-14T04:07:47.322Z,13.77
2023-08-14T04:10:15.109Z,13.73
2023-08-14T04:12:42.867Z,13.77
2023-08-14T04:15:16.026Z,13.78
2023-08-14T04:17:44.325Z,13.80
2023-08-14T04:20:13.138Z,13.77
2023-08-14T04:22:41.038Z,13.76
2023-08-14T04:25:09.437Z,13.77
2023-08-14T04:27:37.929Z,13.78
2023-08-14T04:30:07.417Z,13.80
2023-08-14T04:32:37.513Z,13.78
2023-08-14T04:35:06.224Z,13.78
2023-08-14T04:37:34.324Z,13.78
2023-08-14T04:40:02.171Z,13.75
2023-08-14T04:42:31.000Z,13.69
2023-08-14T04:44:58.825Z,13.70
2023-08-14T04:47:26.635Z,13.81
2023-08-14T04:49:55.968Z,13.87
2023-08-14T04:52:24.445Z,13.93
2023-08-14T04:54:54.190Z,13.97
2023-08-14T04:57:24.674Z,14.01
2023-08-14T04:59:52.735Z,14.03
2023-08-14T05:02:20.582Z,14.12
2023-08-14T05:04:48.673Z,14.17
2023-08-14T05:07:17.869Z,14.28
2023-08-14T05:09:45.751Z,14.35
2023-08-14T05:12:13.575Z,14.43
2023-08-14T05:14:41.382Z,14.56
2023-08-14T05:17:09.397Z,14.69
2023-08-14T05:19:37.168Z,14.75
2023-08-14T05:22:05.513Z,14.84
2023-08-14T05:24:34.693Z,14.89
2023-08-14T05:27:02.542Z,15.07
2023-08-14T05:29:30.306Z,15.21
2023-08-14T05:31:58.869Z,15.35
2023-08-14T05:34:26.664Z,15.43
2023-08-14T05:36:54.549Z,15.53
2023-08-14T05:39:22.318Z,15.48
2023-08-14T05:41:51.865Z,15.65
2023-08-14T05:44:19.810Z,15.81
2023-08-14T05:46:49.561Z,15.97
2023-08-14T05:49:17.989Z,16.09
2023-08-14T05:51:46.517Z,16.11
2023-08-14T05:54:14.364Z,16.11
2023-08-14T05:56:42.169Z,16.36
2023-08-14T05:59:11.412Z,16.64
2023-08-14T06:01:40.698Z,16.73
2023-08-14T06:04:08.787Z,16.89
2023-08-14T06:06:36.809Z,17.13
2023-08-14T06:09:04.990Z,17.37
2023-08-14T06:11:32.823Z,17.59
2023-08-14T06:14:00.567Z,17.82
2023-08-14T06:16:29.980Z,18.08
2023-08-14T06:18:57.836Z,18.31
2023-08-14T06:21:25.602Z,18.55
2023-08-14T06:23:53.495Z,18.70
2023-08-14T06:26:22.311Z,18.85
2023-08-14T06:28:50.223Z,18.87
2023-08-14T06:31:18.057Z,18.96
2023-08-14T06:33:47.955Z,19.08
2023-08-14T06:36:16.308Z,19.10
2023-08-14T06:38:44.050Z,19.15
2023-08-14T06:41:11.856Z,19.23
2023-08-14T06:43:39.705Z,19.22
2023-08-14T06:46:07.531Z,19.44
2023-08-14T06:48:35.334Z,19.55
2023-08-14T06:51:04.516Z,19.63
2023-08-14T06:53:32.876Z,19.87
2023-08-14T06:56:00.806Z,20.06
2023-08-14T06:58:28.613Z,20.26
2023-08-14T07:00:57.339Z,20.17
2023-08-14T07:03:25.226Z,20.34
2023-08-14T07:05:53.019Z,20.33
2023-08-14T07:08:22.177Z,20.63
2023-08-14T07:10:50.216Z,20.57
2023-08-14T07:13:18.089Z,21.04
2023-08-14T07:15:48.598Z,21.40
2023-08-14T07:18:17.084Z,21.57
2023-08-14T07:20:46.331Z,21.65
2023-08-14T07:23:14.184Z,21.64
2023-08-14T07:25:43.368Z,21.74
2023-08-14T07:28:11.145Z,21.76
2023-08-14T07:30:39.902Z,21.62
2023-08-14T07:33:09.070Z,21.98
2023-08-14T07:35:37.083Z,22.00
2023-08-14T07:38:05.641Z,21.97
2023-08-14T07:40:33.518Z,22.18
2023-08-14T07:43:02.653Z,22.30
2023-08-14T07:45:30.480Z,22.46
2023-08-14T07:47:58.352Z,22.71
2023-08-14T07:50:26.245Z,22.55
2023-08-14T07:52:54.037Z,22.40
2023-08-14T07:55:22.045Z,22.60
2023-08-14T07:57:49.855Z,22.64
2023-08-14T08:00:19.567Z,22.85
2023-08-14T08:02:47.726Z,22.87
2023-08-14T08:05:17.511Z,23.05
2023-08-14T08:07:47.494Z,23.21
2023-08-14T08:10:15.221Z,23.29
2023-08-14T08:12:43.030Z,23.31
2023-08-14T08:15:12.192Z,22.90
2023-08-14T08:17:41.525Z,23.07
2023-08-14T08:20:10.470Z,23.15
2023-08-14T08:22:38.388Z,23.10
2023-08-14T08:25:07.192Z,23.15
2023-08-14T08:27:37.195Z,23.37
2023-08-14T08:30:06.217Z,23.18
2023-08-14T08:32:34.109Z,23.32
2023-08-14T08:35:03.298Z,23.37
2023-08-14T08:37:31.172Z,23.39
2023-08-14T08:39:59.008Z,24.17
2023-08-14T08:42:27.921Z,24.24
2023-08-14T08:44:57.744Z,23.66
2023-08-14T08:47:30.501Z,24.15
2023-08-14T08:50:00.664Z,23.71
2023-08-14T08:52:30.128Z,23.30
2023-08-14T08:55:02.282Z,23.64
2023-08-14T08:57:30.769Z,24.03
2023-08-14T09:00:02.046Z,24.16
2023-08-14T09:02:30.214Z,23.90
2023-08-14T09:04:58.145Z,23.80
2023-08-14T09:07:26.214Z,23.48
2023-08-14T09:09:55.375Z,23.52
2023-08-14T09:12:23.180Z,23.82
2023-08-14T09:15:05.346Z,23.94
2023-08-14T09:17:33.222Z,23.88
2023-08-14T09:20:03.556Z,23.51
2023-08-14T09:22:33.816Z,23.68
2023-08-14T09:25:03.506Z,23.73
2023-08-14T09:27:31.334Z,23.69
2023-08-14T09:30:00.409Z,23.44
2023-08-14T09:32:28.347Z,23.84
2023-08-14T09:35:00.110Z,23.77
2023-08-14T09:37:28.314Z,23.66
2023-08-14T09:40:16.056Z,23.44
2023-08-14T09:42:44.665Z,23.45
2023-08-14T09:45:14.421Z,23.68
2023-08-14T09:47:45.748Z,23.83
2023-08-14T09:50:15.702Z,24.07
2023-08-14T09:52:45.746Z,23.84
2023-08-14T09:55:16.713Z,23.62
2023-08-14T09:57:45.685Z,23.77
2023-08-14T10:00:14.598Z,23.70
2023-08-14T10:02:45.989Z,23.95
2023-08-14T10:05:14.400Z,24.45
2023-08-14T10:07:42.591Z,24.52
2023-08-14T10:10:12.209Z,24.47
2023-08-14T10:12:47.433Z,24.41
2023-08-14T10:15:18.073Z,24.65
2023-08-14T10:17:51.532Z,24.64
2023-08-14T10:20:23.210Z,24.66
2023-08-14T10:22:53.753Z,24.80
2023-08-14T10:25:23.716Z,24.90
2023-08-14T10:27:53.951Z,24.91
2023-08-14T10:30:24.859Z,25.23
2023-08-14T10:32:53.798Z,24.83
2023-08-14T10:35:24.948Z,25.25
2023-08-14T10:38:08.464Z,25.33
2023-08-14T10:40:38.702Z,25.61
2023-08-14T10:43:08.416Z,26.16
2023-08-14T10:45:36.311Z,25.44
2023-08-14T10:48:10.862Z,25.27
2023-08-14T10:50:38.744Z,25.59
2023-08-14T10:53:07.527Z,26.79
2023-08-14T10:55:41.564Z,26.95
2023-08-14T10:58:41.977Z,27.03
2023-08-14T11:01:11.593Z,27.46
2023-08-14T11:04:00.952Z,26.22
2023-08-14T11:06:29.809Z,25.82
2023-08-14T11:09:05.205Z,25.81
2023-08-14T11:11:33.077Z,26.07
2023-08-14T11:14:02.449Z,26.48
2023-08-14T11:16:30.740Z,27.17
2023-08-14T11:18:59.279Z,27.33
2023-08-14T11:21:32.116Z,26.86
2023-08-14T11:24:00.848Z,26.95
2023-08-14T11:26:30.908Z,28.00
2023-08-14T11:28:58.754Z,27.12
2023-08-14T11:31:34.341Z,26.72
2023-08-14T11:34:02.885Z,26.99
2023-08-14T11:39:01.602Z,29.34
2023-08-14T11:41:31.580Z,29.99
2023-08-14T11:44:00.101Z,28.85
2023-08-14T11:46:29.353Z,30.67
2023-08-14T11:48:57.379Z,29.54
2023-08-14T11:51:25.920Z,31.73
2023-08-14T11:53:54.364Z,33.21
2023-08-14T11:56:22.274Z,28.98
2023-08-14T11:58:57.674Z,29.80
2023-08-14T12:01:37.483Z,31.79
2023-08-14T12:04:06.736Z,29.70
2023-08-14T12:06:35.642Z,30.89
2023-08-14T12:09:03.628Z,31.31
2023-08-14T12:11:31.500Z,31.07
2023-08-14T12:13:59.284Z,31.10
2023-08-14T12:16:28.801Z,33.98
2023-08-14T12:18:58.879Z,33.83
2023-08-14T12:21:27.698Z,33.16
2023-08-14T12:23:57.090Z,30.76
2023-08-14T12:26:25.120Z,30.08
2023-08-14T12:28:53.100Z,29.16
2023-08-14T12:31:21.052Z,28.47
2023-08-14T12:33:53.460Z,30.91
2023-08-14T12:36:26.000Z,33.10
2023-08-14T12:38:53.793Z,34.15
2023-08-14T12:41:21.698Z,33.51
2023-08-14T12:43:49.550Z,31.61
2023-08-14T12:46:17.434Z,31.42
2023-08-14T12:48:45.268Z,30.37
2023-08-14T12:51:13.043Z,29.30
2023-08-14T12:53:42.158Z,28.60
2023-08-14T12:56:10.014Z,28.08
2023-08-14T12:58:37.815Z,28.18
2023-08-14T13:01:06.230Z,27.69
2023-08-14T13:03:36.777Z,28.31
2023-08-14T13:06:07.907Z,27.91
2023-08-14T13:08:35.892Z,28.39
2023-08-14T13:11:05.099Z,27.75
2023-08-14T13:13:32.942Z,27.83
2023-08-14T13:16:02.351Z,27.65
2023-08-14T13:18:30.233Z,27.88
2023-08-14T13:20:58.013Z,28.23
2023-08-14T13:23:25.919Z,28.78
2023-08-14T13:25:53.844Z,28.24
2023-08-14T13:28:22.958Z,28.38
2023-08-14T13:30:51.505Z,28.10
2023-08-14T13:33:19.678Z,29.10
2023-08-14T13:35:47.701Z,31.19
2023-08-14T13:38:15.530Z,29.90
2023-08-14T13:40:43.868Z,29.23
2023-08-14T13:43:11.756Z,29.27
2023-08-14T13:45:42.512Z,29.99
2023-08-14T13:48:12.451Z,31.77
2023-08-14T13:50:42.979Z,33.88
2023-08-14T13:53:11.128Z,35.78
2023-08-14T13:55:43.220Z,35.02
2023-08-14T13:58:11.104Z,36.76
2023-08-14T14:00:40.395Z,38.18
2023-08-14T14:03:08.300Z,35.56
2023-08-14T14:05:36.134Z,36.55
2023-08-14T14:08:04.060Z,36.80
2023-08-14T14:10:32.033Z,36.38
2023-08-14T14:13:02.454Z,36.48
2023-08-14T14:15:31.346Z,36.64
2023-08-14T14:18:00.676Z,33.65
2023-08-14T14:20:28.867Z,34.48
2023-08-14T14:22:56.696Z,35.07
2023-08-14T14:25:24.488Z,33.25
2023-08-14T14:27:52.270Z,32.34
2023-08-14T14:30:20.051Z,32.92
2023-08-14T14:32:47.962Z,32.59
2023-08-14T14:35:17.201Z,32.37
2023-08-14T14:37:45.004Z,32.75
2023-08-14T14:40:13.079Z,33.62
2023-08-14T14:42:41.083Z,34.22
2023-08-14T14:45:12.608Z,32.24
2023-08-14T14:47:45.611Z,31.01
2023-08-14T14:50:23.909Z,31.40
2023-08-14T14:52:57.665Z,33.11
2023-08-14T14:55:28.045Z,33.45
2023-08-14T14:57:55.792Z,33.00
2023-08-14T15:00:24.299Z,33.19
2023-08-14T15:02:52.638Z,31.61
2023-08-14T15:07:51.250Z,32.46
2023-08-14T15:10:20.624Z,31.87
2023-08-14T15:12:48.424Z,31.76
2023-08-14T15:15:16.262Z,31.42
2023-08-14T15:17:45.089Z,30.79
2023-08-14T15:20:13.992Z,31.35
2023-08-14T15:22:44.135Z,29.93
2023-08-14T15:25:12.979Z,31.03
2023-08-14T15:27:42.264Z,30.34
2023-08-14T15:30:10.831Z,30.37
2023-08-14T15:32:38.830Z,28.86
2023-08-14T15:35:07.425Z,28.01
2023-08-14T15:37:35.483Z,27.65
2023-08-14T15:40:05.137Z,27.41
2023-08-14T15:42:33.029Z,27.01
2023-08-14T15:45:02.130Z,26.91
2023-08-14T15:47:29.994Z,26.48
2023-08-14T15:49:57.864Z,26.26
2023-08-14T15:52:30.019Z,26.06
2023-08-14T15:54:59.022Z,25.94
2023-08-14T15:57:28.097Z,26.05
2023-08-14T15:59:56.097Z,26.15
2023-08-14T16:02:25.381Z,26.03
2023-08-14T16:04:53.897Z,26.01
2023-08-14T16:07:22.664Z,25.98
2023-08-14T16:09:52.269Z,26.14
2023-08-14T16:12:20.383Z,26.45
2023-08-14T16:14:48.290Z,26.40
2023-08-14T16:17:16.144Z,26.25
2023-08-14T16:19:45.397Z,25.93
2023-08-14T16:22:13.200Z,25.88
2023-08-14T16:24:41.477Z,25.88
2023-08-14T16:27:10.893Z,25.85
2023-08-14T16:29:38.676Z,26.06
2023-08-14T16:32:06.736Z,26.42
2023-08-14T16:34:34.629Z,26.13
2023-08-14T16:37:04.663Z,26.41
2023-08-14T16:39:32.476Z,26.10
2023-08-14T16:42:00.261Z,25.98
2023-08-14T16:44:28.150Z,25.88
2023-08-14T16:46:55.936Z,25.93
2023-08-14T16:49:23.830Z,25.65
2023-08-14T16:51:51.596Z,25.79
2023-08-14T16:54:20.715Z,25.51
2023-08-14T16:56:48.514Z,25.54
2023-08-14T16:59:16.273Z,25.69
2023-08-14T17:01:44.055Z,25.40
2023-08-14T17:04:12.149Z,25.54
2023-08-14T17:06:39.998Z,26.97
2023-08-14T17:09:09.485Z,27.08
2023-08-14T17:11:38.649Z,27.17
2023-08-14T17:14:06.426Z,28.89
2023-08-14T17:16:34.276Z,29.91
2023-08-14T17:19:02.152Z,28.95
2023-08-14T17:21:30.122Z,27.26
2023-08-14T17:23:57.938Z,26.91
2023-08-14T17:26:25.814Z,27.16
2023-08-14T17:28:54.933Z,27.26
2023-08-14T17:31:22.765Z,28.28
2023-08-14T17:33:50.613Z,28.86
2023-08-14T17:36:18.931Z,28.88
2023-08-14T17:38:46.723Z,28.33
2023-08-14T17:41:14.509Z,27.18
2023-08-14T17:43:42.244Z,26.93
2023-08-14T17:46:11.415Z,26.48
2023-08-14T17:48:39.261Z,25.75
2023-08-14T17:51:07.095Z,25.57
2023-08-14T17:53:35.328Z,25.60
2023-08-14T17:56:03.138Z,25.42
2023-08-14T17:58:30.946Z,25.52
2023-08-14T18:00:58.794Z,25.19
2023-08-14T18:03:28.086Z,25.12
2023-08-14T18:05:56.238Z,25.18
2023-08-14T18:08:24.164Z,25.16
2023-08-14T18:10:52.044Z,25.14
2023-08-14T18:13:19.806Z,24.82
2023-08-14T18:15:47.979Z,24.72
2023-08-14T18:18:15.779Z,24.72
2023-08-14T18:20:44.019Z,24.80
2023-08-14T18:23:11.863Z,24.74
2023-08-14T18:25:39.648Z,24.54
2023-08-14T18:28:07.735Z,24.38
2023-08-14T18:30:35.524Z,24.26
2023-08-14T18:33:03.327Z,24.43
2023-08-14T18:35:31.154Z,24.44
2023-08-14T18:38:01.957Z,24.39
2023-08-14T18:40:29.734Z,24.22
2023-08-14T18:42:57.493Z,24.11
2023-08-14T18:45:26.354Z,24.02
2023-08-14T18:47:54.250Z,23.81
2023-08-14T18:50:22.794Z,23.80
2023-08-14T18:52:51.163Z,23.73
2023-08-14T18:55:20.377Z,23.68
2023-08-14T18:57:48.692Z,23.70
2023-08-14T19:00:16.671Z,23.63
2023-08-14T19:02:44.516Z,23.47
2023-08-14T19:05:12.736Z,23.47
2023-08-14T19:07:40.555Z,23.43
2023-08-14T19:10:09.340Z,23.33
2023-08-14T19:12:38.489Z,23.25
2023-08-14T19:15:09.008Z,23.25
2023-08-14T19:17:36.875Z,23.22
2023-08-14T19:20:05.690Z,23.17
2023-08-14T19:22:34.013Z,23.10
2023-08-14T19:25:02.098Z,23.04
2023-08-14T19:27:31.024Z,23.06
2023-08-14T19:30:00.266Z,22.96
2023-08-14T19:32:28.206Z,22.99
2023-08-14T19:34:56.068Z,22.82
2023-08-14T19:37:24.647Z,22.84
2023-08-14T19:39:52.611Z,22.86
2023-08-14T19:42:20.442Z,22.81
2023-08-14T19:44:48.193Z,22.78
2023-08-14T19:47:17.524Z,22.74
2023-08-14T19:49:45.598Z,22.73
2023-08-14T19:52:13.322Z,22.55
2023-08-14T19:54:41.160Z,22.43
2023-08-14T19:57:09.009Z,22.48
2023-08-14T19:59:36.818Z,22.36
2023-08-14T20:02:04.692Z,22.35
2023-08-14T20:04:34.189Z,22.33
2023-08-14T20:07:01.972Z,22.35
2023-08-14T20:09:29.839Z,22.39
2023-08-14T20:11:57.715Z,22.32
2023-08-14T20:14:25.454Z,22.34
2023-08-14T20:16:53.266Z,22.34
2023-08-14T20:19:24.451Z,22.36
2023-08-14T20:21:53.591Z,22.32
2023-08-14T20:24:21.511Z,22.20
2023-08-14T20:26:49.419Z,22.14
2023-08-14T20:29:17.186Z,22.15
2023-08-14T20:31:44.958Z,22.19
2023-08-14T20:34:12.754Z,22.10
2023-08-14T20:36:41.216Z,22.20
2023-08-14T20:39:10.382Z,22.13
2023-08-14T20:41:38.224Z,22.12
2023-08-14T20:44:06.840Z,22.03
2023-08-14T20:46:34.662Z,22.12
2023-08-14T20:49:02.436Z,22.06
2023-08-14T20:51:30.229Z,22.04
2023-08-14T20:53:58.009Z,22.03
2023-08-14T20:56:27.106Z,22.02
2023-08-14T20:58:54.884Z,21.93
2023-08-14T21:01:22.716Z,21.93
2023-08-14T21:03:50.778Z,21.89
2023-08-14T21:06:19.004Z,21.85
2023-08-14T21:08:46.849Z,21.81
2023-08-14T21:11:16.200Z,21.79
2023-08-14T21:13:45.365Z,21.75
2023-08-14T21:16:13.210Z,21.76
2023-08-14T21:18:41.054Z,21.77
2023-08-14T21:21:08.790Z,21.75
2023-08-14T21:23:36.564Z,21.85
2023-08-14T21:26:04.447Z,21.85
2023-08-14T21:28:32.327Z,21.78
2023-08-14T21:31:01.606Z,21.73
2023-08-14T21:33:29.691Z,21.64
2023-08-14T21:35:59.824Z,21.63
2023-08-14T21:38:27.607Z,21.64
2023-08-14T21:40:56.598Z,21.64
2023-08-14T21:43:25.681Z,21.66
2023-08-14T21:45:53.653Z,21.67
2023-08-14T21:48:22.812Z,21.62
2023-08-14T21:50:50.551Z,21.60
2023-08-14T21:53:19.774Z,21.58
2023-08-14T21:55:47.917Z,21.54
2023-08-14T21:58:15.806Z,21.52
2023-08-14T22:00:43.598Z,21.53
2023-08-14T22:03:11.428Z,21.42
2023-08-14T22:05:40.547Z,21.39
2023-08-14T22:08:08.297Z,21.37
2023-08-14T22:10:36.156Z,21.39
2023-08-14T22:13:04.702Z,21.43
2023-08-14T22:15:44.736Z,21.43
2023-08-14T22:18:14.320Z,21.33
2023-08-14T22:20:43.660Z,21.34
2023-08-14T22:23:13.601Z,21.35
2023-08-14T22:25:42.634Z,21.31
2023-08-14T22:28:10.374Z,21.38
2023-08-14T22:30:38.240Z,21.41
2023-08-14T22:33:06.545Z,21.47
2023-08-14T22:35:34.444Z,21.56
2023-08-14T22:38:03.540Z,21.43
2023-08-14T22:40:31.318Z,21.43
2023-08-14T22:42:59.057Z,21.35
2023-08-14T22:45:31.103Z,21.36
2023-08-14T22:47:59.067Z,21.35
2023-08-14T22:50:26.835Z,21.40
2023-08-14T22:52:54.621Z,21.36
2023-08-14T22:55:23.761Z,21.29
2023-08-14T22:57:51.890Z,21.28
2023-08-14T23:00:19.647Z,21.31
2023-08-14T23:02:47.551Z,21.17
2023-08-14T23:05:15.397Z,21.20
2023-08-14T23:07:43.230Z,21.24
2023-08-14T23:10:11.383Z,21.22
2023-08-14T23:12:40.510Z,21.16
2023-08-14T23:15:09.337Z,21.16
2023-08-14T23:17:37.132Z,21.12
2023-08-14T23:20:06.081Z,21.19
2023-08-14T23:22:33.869Z,21.21
2023-08-14T23:25:01.661Z,21.17
2023-08-14T23:27:29.448Z,21.11
2023-08-14T23:29:58.602Z,21.07
2023-08-14T23:32:26.471Z,21.04
2023-08-14T23:34:54.856Z,20.94
2023-08-14T23:37:22.992Z,20.90
2023-08-14T23:39:51.109Z,20.93
2023-08-14T23:42:19.740Z,20.93
2023-08-14T23:44:47.523Z,20.92
2023-08-14T23:47:16.626Z,20.88
2023-08-14T23:49:46.284Z,20.88
2023-08-14T23:52:14.099Z,20.84
2023-08-14T23:54:43.006Z,20.78
2023-08-14T23:57:10.868Z,20.75
2023-08-14T23:59:38.638Z,20.75
